Flight Track Log - Related Links

Times and Time Zones

All times are in EDT time to prevent confusion due to time zone crossing. See the CTL78 flight status page for this flight to view local times or setup timezone preferences in your user account.

Time Position Orientation Groundspeed Altitude Reporting Facility
EDT Latitude Longitude Course Direction KTS MPH feet Rate Location/Type
Fri 04:21:52 PM 42.6622 -83.4406 269° West 95 109 1,400  Level Cleveland Center
Fri 04:22:42 PM 42.6617 -83.4717 269° West 97 112 2,200 919 Climbing Cleveland Center
Fri 04:23:43 PM 42.6711 -83.5089 289° West 121 139 3,100 885 Climbing Cleveland Center
Fri 04:25:00 PM 42.7031 -83.4529 52° Northeast  Level FlightAware Approximate
Fri 04:32:00 PM 42.9738 -83.4478 321° Northwest  Level FlightAware Approximate
Fri 04:33:00 PM 43.0055 -83.4827 321° Northwest  Level FlightAware Approximate
Fri 04:34:00 PM 43.0371 -83.5176 321° Northwest  Level FlightAware Approximate
Fri 04:35:00 PM 43.0687 -83.5526 321° Northwest  Level FlightAware Approximate
Fri 04:36:00 PM 43.1003 -83.5875 321° Northwest  Level FlightAware Approximate
Fri 04:37:00 PM 43.1319 -83.6226 321° Northwest  Level FlightAware Approximate
Fri 04:38:00 PM 43.1635 -83.6576 321° Northwest  Level FlightAware Approximate
Fri 04:39:00 PM 43.1951 -83.6927 321° Northwest  Level FlightAware Approximate
Fri 04:40:00 PM 43.2263 -83.7284 318° Northwest  Level FlightAware Approximate
Fri 04:41:00 PM 43.2567 -83.7655 318° Northwest  Level FlightAware Approximate
Fri 04:42:00 PM 43.2871 -83.8026 318° Northwest  Level FlightAware Approximate
Fri 04:43:00 PM 43.3174 -83.8397 318° Northwest  Level FlightAware Approximate
Fri 04:44:00 PM 43.3478 -83.8769 318° Northwest  Level FlightAware Approximate
Fri 04:45:00 PM 43.3791 -83.9124 324° Northwest  Level FlightAware Approximate
Fri 04:46:00 PM 43.4120 -83.9453 324° Northwest  Level FlightAware Approximate
Fri 04:47:00 PM 43.4449 -83.9781 324° Northwest  Level FlightAware Approximate
Fri 04:48:00 PM 43.4778 -84.0110 324° Northwest  Level FlightAware Approximate
Fri 04:49:00 PM 43.5075 -84.0483 305° West  Level FlightAware Approximate
Fri 04:50:00 PM 43.5167 -84.0667 305° West  Level FlightAware Approximate
Fri 04:51:00 PM 43.5329 -84.0796 305° West  Level Estimated
Fri 04:52:00 PM 43.5329 -84.0796 305° West  Level Estimated
Fri 04:53:00 PM 43.5329 -84.0796 305° West  Level Estimated
Fri 04:54:00 PM 43.5329 -84.0796 305° West  Level Estimated

Login

Don't have an account? Register now (free) for customized features, flight alerts, and more!